sensor_id;sensor_type;location;lat;lon;timestamp;pressure;altitude;pressure_sealevel;temperature;humidity
40117;BME280;25829;50.228;18.936;2023-07-29T00:00:30;97977.25;;;16.09;79.90
40117;BME280;25829;50.228;18.936;2023-07-29T00:03:31;97980.97;;;16.08;80.18
40117;BME280;25829;50.228;18.936;2023-07-29T00:06:33;97981.78;;;16.09;80.11
40117;BME280;25829;50.228;18.936;2023-07-29T00:09:33;97979.63;;;16.06;80.15
40117;BME280;25829;50.228;18.936;2023-07-29T00:12:35;97983.56;;;15.98;80.10
40117;BME280;25829;50.228;18.936;2023-07-29T00:15:35;97976.34;;;15.93;79.85
40117;BME280;25829;50.228;18.936;2023-07-29T00:18:36;97985.38;;;15.92;79.89
40117;BME280;25829;50.228;18.936;2023-07-29T00:21:37;97984.56;;;15.92;79.54
40117;BME280;25829;50.228;18.936;2023-07-29T00:24:41;97977.59;;;15.86;79.88
40117;BME280;25829;50.228;18.936;2023-07-29T00:27:42;97982.66;;;15.87;80.22
40117;BME280;25829;50.228;18.936;2023-07-29T00:30:44;97977.91;;;15.89;80.57
40117;BME280;25829;50.228;18.936;2023-07-29T00:33:45;97975.78;;;15.91;80.67
40117;BME280;25829;50.228;18.936;2023-07-29T00:36:49;97969.97;;;15.94;80.82
40117;BME280;25829;50.228;18.936;2023-07-29T00:39:49;97978.78;;;16.00;80.74
40117;BME280;25829;50.228;18.936;2023-07-29T00:42:53;97963.38;;;16.02;80.24
40117;BME280;25829;50.228;18.936;2023-07-29T00:45:54;97968.66;;;15.97;80.35
40117;BME280;25829;50.228;18.936;2023-07-29T00:49:09;97967.31;;;15.99;80.76
40117;BME280;25829;50.228;18.936;2023-07-29T00:52:25;97965.19;;;15.96;80.95
40117;BME280;25829;50.228;18.936;2023-07-29T00:55:34;97961.47;;;15.97;80.80
40117;BME280;25829;50.228;18.936;2023-07-29T00:58:35;97958.81;;;15.97;81.02
40117;BME280;25829;50.228;18.936;2023-07-29T01:01:39;97958.44;;;15.84;81.32
40117;BME280;25829;50.228;18.936;2023-07-29T01:04:40;97962.66;;;15.79;81.89
40117;BME280;25829;50.228;18.936;2023-07-29T01:07:49;97954.47;;;15.86;81.71
40117;BME280;25829;50.228;18.936;2023-07-29T01:14:56;97949.00;;;16.03;81.57
40117;BME280;25829;50.228;18.936;2023-07-29T01:21:45;97945.81;;;16.01;81.88
40117;BME280;25829;50.228;18.936;2023-07-29T01:24:58;97946.66;;;16.07;81.67
40117;BME280;25829;50.228;18.936;2023-07-29T01:28:21;97944.00;;;16.07;81.52
40117;BME280;25829;50.228;18.936;2023-07-29T01:31:44;97940.00;;;16.09;81.44
40117;BME280;25829;50.228;18.936;2023-07-29T01:38:06;97951.16;;;16.06;81.50
40117;BME280;25829;50.228;18.936;2023-07-29T01:41:08;97952.78;;;16.07;81.31
40117;BME280;25829;50.228;18.936;2023-07-29T01:44:19;97948.75;;;16.04;81.37
40117;BME280;25829;50.228;18.936;2023-07-29T01:47:20;97956.47;;;16.06;81.51
40117;BME280;25829;50.228;18.936;2023-07-29T01:50:23;97960.47;;;16.09;81.32
40117;BME280;25829;50.228;18.936;2023-07-29T01:53:26;97967.69;;;16.13;81.40
40117;BME280;25829;50.228;18.936;2023-07-29T01:56:27;97966.38;;;16.16;81.53
40117;BME280;25829;50.228;18.936;2023-07-29T01:59:30;97979.47;;;16.17;81.65
40117;BME280;25829;50.228;18.936;2023-07-29T02:02:37;97965.31;;;16.17;81.66
40117;BME280;25829;50.228;18.936;2023-07-29T02:05:38;97967.75;;;16.18;81.62
40117;BME280;25829;50.228;18.936;2023-07-29T02:08:39;97962.97;;;16.20;81.64
40117;BME280;25829;50.228;18.936;2023-07-29T02:11:41;97968.25;;;16.15;81.58
40117;BME280;25829;50.228;18.936;2023-07-29T02:14:48;97975.66;;;16.13;81.41
40117;BME280;25829;50.228;18.936;2023-07-29T02:17:50;97974.38;;;16.16;81.69
40117;BME280;25829;50.228;18.936;2023-07-29T02:20:52;97973.31;;;16.17;81.50
40117;BME280;25829;50.228;18.936;2023-07-29T02:23:55;97968.31;;;16.20;81.44
40117;BME280;25829;50.228;18.936;2023-07-29T02:26:59;97968.81;;;16.17;81.50
40117;BME280;25829;50.228;18.936;2023-07-29T02:30:00;97971.72;;;16.16;81.76
40117;BME280;25829;50.228;18.936;2023-07-29T02:33:03;97970.97;;;16.20;81.89
40117;BME280;25829;50.228;18.936;2023-07-29T02:36:12;97972.88;;;16.25;81.67
40117;BME280;25829;50.228;18.936;2023-07-29T02:39:13;97981.16;;;16.29;81.69
40117;BME280;25829;50.228;18.936;2023-07-29T02:42:14;97976.34;;;16.25;81.50
40117;BME280;25829;50.228;18.936;2023-07-29T02:45:15;97982.41;;;16.21;81.41
40117;BME280;25829;50.228;18.936;2023-07-29T02:48:16;97985.56;;;16.18;81.52
40117;BME280;25829;50.228;18.936;2023-07-29T02:51:17;97985.00;;;16.16;81.38
40117;BME280;25829;50.228;18.936;2023-07-29T02:54:18;97988.44;;;16.11;81.13
40117;BME280;25829;50.228;18.936;2023-07-29T02:57:19;97984.41;;;16.03;81.22
40117;BME280;25829;50.228;18.936;2023-07-29T03:00:19;97981.19;;;16.01;81.33
40117;BME280;25829;50.228;18.936;2023-07-29T03:03:45;97986.00;;;16.04;81.31
40117;BME280;25829;50.228;18.936;2023-07-29T03:06:46;97978.22;;;15.98;80.99
40117;BME280;25829;50.228;18.936;2023-07-29T03:09:48;97980.31;;;15.91;81.02
40117;BME280;25829;50.228;18.936;2023-07-29T03:13:02;97989.09;;;15.91;81.19
40117;BME280;25829;50.228;18.936;2023-07-29T03:16:07;97994.41;;;15.91;81.38
40117;BME280;25829;50.228;18.936;2023-07-29T03:19:13;97992.53;;;15.92;81.42
40117;BME280;25829;50.228;18.936;2023-07-29T03:22:14;97990.94;;;15.91;81.13
40117;BME280;25829;50.228;18.936;2023-07-29T03:25:15;97998.66;;;15.92;81.02
40117;BME280;25829;50.228;18.936;2023-07-29T03:28:19;97989.88;;;15.92;80.79
40117;BME280;25829;50.228;18.936;2023-07-29T03:31:26;97996.00;;;15.92;80.87
40117;BME280;25829;50.228;18.936;2023-07-29T03:34:33;97999.72;;;15.91;80.49
40117;BME280;25829;50.228;18.936;2023-07-29T03:37:35;98000.22;;;15.88;80.70
40117;BME280;25829;50.228;18.936;2023-07-29T03:40:39;97998.06;;;15.85;80.58
40117;BME280;25829;50.228;18.936;2023-07-29T03:43:40;97998.56;;;15.82;80.86
40117;BME280;25829;50.228;18.936;2023-07-29T03:46:41;97998.84;;;15.80;80.72
40117;BME280;25829;50.228;18.936;2023-07-29T03:49:43;97999.00;;;15.69;80.90
40117;BME280;25829;50.228;18.936;2023-07-29T03:52:45;97994.69;;;15.63;81.54
40117;BME280;25829;50.228;18.936;2023-07-29T03:55:46;97997.88;;;15.65;81.81
40117;BME280;25829;50.228;18.936;2023-07-29T03:58:47;97999.53;;;15.71;82.00
40117;BME280;25829;50.228;18.936;2023-07-29T04:01:49;98001.19;;;15.77;81.82
40117;BME280;25829;50.228;18.936;2023-07-29T04:04:50;98007.91;;;15.85;81.72
40117;BME280;25829;50.228;18.936;2023-07-29T04:07:51;98013.28;;;15.90;82.03
40117;BME280;25829;50.228;18.936;2023-07-29T04:10:54;98013.09;;;15.96;81.97
40117;BME280;25829;50.228;18.936;2023-07-29T04:13:55;98017.13;;;16.04;81.97
40117;BME280;25829;50.228;18.936;2023-07-29T04:16:58;98006.28;;;16.11;82.10
40117;BME280;25829;50.228;18.936;2023-07-29T04:19:59;98014.28;;;16.16;82.34
40117;BME280;25829;50.228;18.936;2023-07-29T04:23:10;98018.91;;;16.25;82.73
40117;BME280;25829;50.228;18.936;2023-07-29T04:26:11;98016.56;;;16.34;82.67
40117;BME280;25829;50.228;18.936;2023-07-29T04:29:18;98013.19;;;16.44;82.96
40117;BME280;25829;50.228;18.936;2023-07-29T04:32:22;98014.56;;;16.51;83.08
40117;BME280;25829;50.228;18.936;2023-07-29T04:35:22;98011.16;;;16.61;83.29
40117;BME280;25829;50.228;18.936;2023-07-29T04:38:33;98009.91;;;16.69;83.53
40117;BME280;25829;50.228;18.936;2023-07-29T04:41:34;98009.63;;;16.70;84.17
40117;BME280;25829;50.228;18.936;2023-07-29T04:44:34;98011.50;;;16.75;84.60
40117;BME280;25829;50.228;18.936;2023-07-29T04:47:36;98017.97;;;16.84;84.81
40117;BME280;25829;50.228;18.936;2023-07-29T04:50:37;98023.84;;;16.96;84.65
40117;BME280;25829;50.228;18.936;2023-07-29T04:53:44;98013.81;;;17.09;84.52
40117;BME280;25829;50.228;18.936;2023-07-29T04:56:45;98035.47;;;17.17;84.82
40117;BME280;25829;50.228;18.936;2023-07-29T04:59:46;98027.78;;;17.31;85.21
40117;BME280;25829;50.228;18.936;2023-07-29T05:02:47;98021.41;;;17.42;85.45
40117;BME280;25829;50.228;18.936;2023-07-29T05:05:54;98026.78;;;17.58;85.12
40117;BME280;25829;50.228;18.936;2023-07-29T05:09:12;98032.66;;;17.75;84.99
40117;BME280;25829;50.228;18.936;2023-07-29T05:12:13;98038.81;;;17.86;84.63
40117;BME280;25829;50.228;18.936;2023-07-29T05:15:14;98035.13;;;17.97;84.60
40117;BME280;25829;50.228;18.936;2023-07-29T05:18:21;98042.09;;;18.08;84.52
40117;BME280;25829;50.228;18.936;2023-07-29T05:21:22;98049.28;;;18.13;84.67
40117;BME280;25829;50.228;18.936;2023-07-29T05:24:43;98038.06;;;18.21;84.99
40117;BME280;25829;50.228;18.936;2023-07-29T05:27:49;98040.22;;;18.29;84.97
40117;BME280;25829;50.228;18.936;2023-07-29T05:31:26;98045.00;;;18.37;84.88
40117;BME280;25829;50.228;18.936;2023-07-29T05:34:29;98042.88;;;18.45;84.41
40117;BME280;25829;50.228;18.936;2023-07-29T05:37:32;98049.00;;;18.50;84.22
40117;BME280;25829;50.228;18.936;2023-07-29T05:40:33;98057.56;;;18.57;84.24
40117;BME280;25829;50.228;18.936;2023-07-29T05:43:34;98047.13;;;18.61;84.29
40117;BME280;25829;50.228;18.936;2023-07-29T05:46:38;98034.81;;;18.70;83.92
40117;BME280;25829;50.228;18.936;2023-07-29T05:49:42;98036.38;;;18.76;82.97
40117;BME280;25829;50.228;18.936;2023-07-29T05:52:48;98041.19;;;18.79;82.39
40117;BME280;25829;50.228;18.936;2023-07-29T05:55:49;98044.91;;;18.83;82.35
40117;BME280;25829;50.228;18.936;2023-07-29T05:58:50;98033.19;;;18.90;82.29
40117;BME280;25829;50.228;18.936;2023-07-29T06:01:51;98046.81;;;18.98;81.97
40117;BME280;25829;50.228;18.936;2023-07-29T06:04:52;98054.78;;;19.08;81.75
40117;BME280;25829;50.228;18.936;2023-07-29T06:07:59;98048.31;;;19.15;81.76
40117;BME280;25829;50.228;18.936;2023-07-29T06:11:00;98048.88;;;19.22;81.47
40117;BME280;25829;50.228;18.936;2023-07-29T06:14:01;98053.63;;;19.30;81.38
40117;BME280;25829;50.228;18.936;2023-07-29T06:17:14;98057.91;;;19.36;81.06
40117;BME280;25829;50.228;18.936;2023-07-29T06:20:15;98053.84;;;19.39;80.62
40117;BME280;25829;50.228;18.936;2023-07-29T06:23:16;98054.63;;;19.44;80.49
40117;BME280;25829;50.228;18.936;2023-07-29T06:26:17;98051.91;;;19.49;80.52
40117;BME280;25829;50.228;18.936;2023-07-29T06:29:18;98063.41;;;19.55;80.33
40117;BME280;25829;50.228;18.936;2023-07-29T06:32:21;98065.25;;;19.59;80.68
40117;BME280;25829;50.228;18.936;2023-07-29T06:35:22;98069.78;;;19.69;80.68
40117;BME280;25829;50.228;18.936;2023-07-29T06:38:23;98079.06;;;19.82;80.73
40117;BME280;25829;50.228;18.936;2023-07-29T06:41:23;98081.94;;;19.96;80.71
40117;BME280;25829;50.228;18.936;2023-07-29T06:44:24;98077.03;;;20.08;80.55
40117;BME280;25829;50.228;18.936;2023-07-29T06:47:25;98080.69;;;20.22;80.61
40117;BME280;25829;50.228;18.936;2023-07-29T06:50:31;98077.94;;;20.33;80.13
40117;BME280;25829;50.228;18.936;2023-07-29T06:53:32;98071.44;;;20.39;79.63
40117;BME280;25829;50.228;18.936;2023-07-29T06:56:33;98076.00;;;20.43;79.48
40117;BME280;25829;50.228;18.936;2023-07-29T06:59:33;98079.16;;;20.45;79.13
40117;BME280;25829;50.228;18.936;2023-07-29T07:02:34;98077.75;;;20.53;79.09
40117;BME280;25829;50.228;18.936;2023-07-29T07:05:35;98071.28;;;20.59;78.78
40117;BME280;25829;50.228;18.936;2023-07-29T07:08:36;98076.59;;;20.64;78.25
40117;BME280;25829;50.228;18.936;2023-07-29T07:11:36;98077.09;;;20.66;78.03
40117;BME280;25829;50.228;18.936;2023-07-29T07:14:37;98077.09;;;20.66;77.69
40117;BME280;25829;50.228;18.936;2023-07-29T07:17:38;98065.59;;;20.66;77.49
40117;BME280;25829;50.228;18.936;2023-07-29T07:20:39;98069.06;;;20.66;77.42
40117;BME280;25829;50.228;18.936;2023-07-29T07:23:40;98067.47;;;20.65;77.32
40117;BME280;25829;50.228;18.936;2023-07-29T07:26:40;98075.97;;;20.72;77.58
40117;BME280;25829;50.228;18.936;2023-07-29T07:29:41;98070.53;;;20.83;77.54
40117;BME280;25829;50.228;18.936;2023-07-29T07:32:42;98059.97;;;20.91;77.09
40117;BME280;25829;50.228;18.936;2023-07-29T07:35:43;98063.63;;;21.00;76.88
40117;BME280;25829;50.228;18.936;2023-07-29T07:38:52;98072.56;;;21.15;76.97
40117;BME280;25829;50.228;18.936;2023-07-29T07:41:53;98073.50;;;21.29;76.76
40117;BME280;25829;50.228;18.936;2023-07-29T07:44:54;98069.84;;;21.44;76.06
40117;BME280;25829;50.228;18.936;2023-07-29T07:47:56;98077.91;;;21.63;75.72
40117;BME280;25829;50.228;18.936;2023-07-29T07:50:56;98079.81;;;21.81;75.41
40117;BME280;25829;50.228;18.936;2023-07-29T07:54:02;98074.47;;;22.00;74.05
40117;BME280;25829;50.228;18.936;2023-07-29T07:57:03;98082.66;;;22.09;72.31
40117;BME280;25829;50.228;18.936;2023-07-29T08:00:05;98070.94;;;22.18;70.79
40117;BME280;25829;50.228;18.936;2023-07-29T08:03:17;98070.78;;;22.29;70.52
40117;BME280;25829;50.228;18.936;2023-07-29T08:06:18;98065.34;;;22.34;70.40
40117;BME280;25829;50.228;18.936;2023-07-29T08:09:28;98053.41;;;22.40;70.61
40117;BME280;25829;50.228;18.936;2023-07-29T08:12:32;98054.91;;;22.46;70.35
40117;BME280;25829;50.228;18.936;2023-07-29T08:15:35;98057.06;;;22.63;70.24
40117;BME280;25829;50.228;18.936;2023-07-29T08:18:36;98059.00;;;22.90;70.09
40117;BME280;25829;50.228;18.936;2023-07-29T08:21:36;98059.41;;;23.11;69.25
40117;BME280;25829;50.228;18.936;2023-07-29T08:24:37;98048.75;;;23.33;68.43
40117;BME280;25829;50.228;18.936;2023-07-29T08:27:44;98050.41;;;23.57;67.37
40117;BME280;25829;50.228;18.936;2023-07-29T08:30:45;98047.56;;;23.76;67.23
40117;BME280;25829;50.228;18.936;2023-07-29T08:33:46;98053.53;;;23.87;66.55
40117;BME280;25829;50.228;18.936;2023-07-29T08:36:46;98063.69;;;23.90;64.71
40117;BME280;25829;50.228;18.936;2023-07-29T08:39:47;98056.69;;;23.89;63.49
40117;BME280;25829;50.228;18.936;2023-07-29T08:42:48;98050.69;;;23.92;64.46
40117;BME280;25829;50.228;18.936;2023-07-29T08:45:54;98042.78;;;24.09;63.85
40117;BME280;25829;50.228;18.936;2023-07-29T08:48:55;98048.59;;;24.25;63.87
40117;BME280;25829;50.228;18.936;2023-07-29T08:51:57;98034.53;;;24.37;63.70
40117;BME280;25829;50.228;18.936;2023-07-29T08:54:58;98040.25;;;24.35;62.55
40117;BME280;25829;50.228;18.936;2023-07-29T08:58:00;98036.28;;;24.33;62.57
40117;BME280;25829;50.228;18.936;2023-07-29T09:01:01;98031.56;;;24.38;62.78
40117;BME280;25829;50.228;18.936;2023-07-29T09:04:05;98031.78;;;24.82;63.31
40117;BME280;25829;50.228;18.936;2023-07-29T09:07:13;98034.22;;;25.58;62.72
40117;BME280;25829;50.228;18.936;2023-07-29T09:10:14;98035.28;;;26.52;61.76
40117;BME280;25829;50.228;18.936;2023-07-29T09:13:16;98021.03;;;27.41;59.81
40117;BME280;25829;50.228;18.936;2023-07-29T09:16:16;98023.94;;;27.56;57.33
40117;BME280;25829;50.228;18.936;2023-07-29T09:19:35;98027.25;;;27.41;54.72
40117;BME280;25829;50.228;18.936;2023-07-29T09:22:35;98027.44;;;26.98;56.44
40117;BME280;25829;50.228;18.936;2023-07-29T09:25:40;98020.09;;;26.77;57.07
40117;BME280;25829;50.228;18.936;2023-07-29T09:28:40;98018.81;;;27.04;57.27
40117;BME280;25829;50.228;18.936;2023-07-29T09:35:13;98018.97;;;27.17;56.09
40117;BME280;25829;50.228;18.936;2023-07-29T09:38:15;98007.94;;;27.43;55.84
40117;BME280;25829;50.228;18.936;2023-07-29T09:41:16;98007.13;;;28.05;55.13
40117;BME280;25829;50.228;18.936;2023-07-29T09:44:17;98015.13;;;28.68;53.27
40117;BME280;25829;50.228;18.936;2023-07-29T09:47:22;98015.00;;;28.76;51.12
40117;BME280;25829;50.228;18.936;2023-07-29T09:50:24;98008.28;;;28.37;50.72
40117;BME280;25829;50.228;18.936;2023-07-29T09:53:26;98006.75;;;27.94;52.00
40117;BME280;25829;50.228;18.936;2023-07-29T09:56:33;97998.50;;;28.24;52.35
40117;BME280;25829;50.228;18.936;2023-07-29T09:59:34;98003.78;;;28.66;51.53
40117;BME280;25829;50.228;18.936;2023-07-29T10:02:35;98000.97;;;28.74;50.45
40117;BME280;25829;50.228;18.936;2023-07-29T10:08:50;97993.25;;;28.52;51.93
40117;BME280;25829;50.228;18.936;2023-07-29T10:11:57;97989.59;;;28.36;51.88
40117;BME280;25829;50.228;18.936;2023-07-29T10:15:06;97996.56;;;28.24;51.14
40117;BME280;25829;50.228;18.936;2023-07-29T10:18:10;97985.72;;;27.91;50.83
40117;BME280;25829;50.228;18.936;2023-07-29T10:21:11;97979.34;;;27.54;50.70
40117;BME280;25829;50.228;18.936;2023-07-29T10:24:18;97994.81;;;27.32;51.08
40117;BME280;25829;50.228;18.936;2023-07-29T10:27:29;97993.81;;;27.07;51.37
40117;BME280;25829;50.228;18.936;2023-07-29T10:30:32;97987.03;;;26.93;52.12
40117;BME280;25829;50.228;18.936;2023-07-29T10:33:34;97984.91;;;26.77;51.66
40117;BME280;25829;50.228;18.936;2023-07-29T10:36:35;97981.78;;;26.67;52.11
40117;BME280;25829;50.228;18.936;2023-07-29T10:39:41;97975.59;;;26.49;52.26
40117;BME280;25829;50.228;18.936;2023-07-29T10:43:02;97987.88;;;26.37;50.56
40117;BME280;25829;50.228;18.936;2023-07-29T10:46:23;97978.84;;;26.25;51.61
40117;BME280;25829;50.228;18.936;2023-07-29T10:49:23;97984.28;;;26.07;51.69
40117;BME280;25829;50.228;18.936;2023-07-29T10:52:40;97977.50;;;25.92;50.99
40117;BME280;25829;50.228;18.936;2023-07-29T10:55:45;97988.28;;;25.75;52.21
40117;BME280;25829;50.228;18.936;2023-07-29T10:58:58;97980.66;;;25.68;51.72
40117;BME280;25829;50.228;18.936;2023-07-29T11:02:00;97977.34;;;25.54;52.37
40117;BME280;25829;50.228;18.936;2023-07-29T11:05:16;97969.88;;;25.51;51.86
40117;BME280;25829;50.228;18.936;2023-07-29T11:08:27;97981.16;;;25.53;52.77
40117;BME280;25829;50.228;18.936;2023-07-29T11:11:28;97971.78;;;25.51;52.24
40117;BME280;25829;50.228;18.936;2023-07-29T11:14:29;97963.19;;;25.40;52.24
40117;BME280;25829;50.228;18.936;2023-07-29T11:17:32;97968.28;;;25.33;52.97
40117;BME280;25829;50.228;18.936;2023-07-29T11:20:36;97960.34;;;25.36;53.09
40117;BME280;25829;50.228;18.936;2023-07-29T11:23:39;97960.16;;;25.41;52.54
40117;BME280;25829;50.228;18.936;2023-07-29T11:26:46;97957.00;;;25.48;52.02
40117;BME280;25829;50.228;18.936;2023-07-29T11:29:48;97948.41;;;25.37;51.90
40117;BME280;25829;50.228;18.936;2023-07-29T11:32:49;97957.94;;;25.35;52.10
40117;BME280;25829;50.228;18.936;2023-07-29T11:35:50;97935.72;;;25.38;52.17
40117;BME280;25829;50.228;18.936;2023-07-29T11:38:51;97946.34;;;25.43;52.31
40117;BME280;25829;50.228;18.936;2023-07-29T11:41:52;97946.53;;;25.46;51.85
40117;BME280;25829;50.228;18.936;2023-07-29T11:44:53;97935.88;;;25.41;51.37
40117;BME280;25829;50.228;18.936;2023-07-29T11:47:53;97940.94;;;25.34;51.20
40117;BME280;25829;50.228;18.936;2023-07-29T11:50:54;97936.84;;;25.28;51.89
40117;BME280;25829;50.228;18.936;2023-07-29T11:53:55;97937.63;;;25.29;52.42
40117;BME280;25829;50.228;18.936;2023-07-29T11:56:56;97932.06;;;25.34;52.61
40117;BME280;25829;50.228;18.936;2023-07-29T11:59:57;97943.16;;;25.41;51.73
40117;BME280;25829;50.228;18.936;2023-07-29T12:02:58;97932.53;;;25.44;51.78
40117;BME280;25829;50.228;18.936;2023-07-29T12:06:02;97936.19;;;25.40;51.58
40117;BME280;25829;50.228;18.936;2023-07-29T12:09:03;97927.94;;;25.36;51.64
40117;BME280;25829;50.228;18.936;2023-07-29T12:12:05;97924.75;;;25.34;52.06
40117;BME280;25829;50.228;18.936;2023-07-29T12:15:07;97934.13;;;25.37;52.24
40117;BME280;25829;50.228;18.936;2023-07-29T12:18:10;97927.94;;;25.36;51.61
40117;BME280;25829;50.228;18.936;2023-07-29T12:21:15;97928.06;;;25.31;52.10
40117;BME280;25829;50.228;18.936;2023-07-29T12:24:17;97915.34;;;25.23;52.09
40117;BME280;25829;50.228;18.936;2023-07-29T12:27:21;97909.47;;;25.12;51.80
40117;BME280;25829;50.228;18.936;2023-07-29T12:30:23;97910.72;;;25.06;51.55
40117;BME280;25829;50.228;18.936;2023-07-29T12:33:35;97905.16;;;25.03;51.45
40117;BME280;25829;50.228;18.936;2023-07-29T12:36:46;97900.72;;;24.98;51.06
40117;BME280;25829;50.228;18.936;2023-07-29T12:39:50;97901.19;;;24.91;51.62
40117;BME280;25829;50.228;18.936;2023-07-29T12:42:51;97906.44;;;24.88;51.62
40117;BME280;25829;50.228;18.936;2023-07-29T12:45:52;97896.59;;;24.83;51.93
40117;BME280;25829;50.228;18.936;2023-07-29T12:48:56;97894.34;;;24.85;52.17
40117;BME280;25829;50.228;18.936;2023-07-29T12:51:58;97896.75;;;24.87;52.10
40117;BME280;25829;50.228;18.936;2023-07-29T12:54:59;97903.09;;;24.91;52.42
40117;BME280;25829;50.228;18.936;2023-07-29T12:58:00;97887.72;;;24.91;52.41
40117;BME280;25829;50.228;18.936;2023-07-29T13:01:01;97890.72;;;24.98;52.15
40117;BME280;25829;50.228;18.936;2023-07-29T13:04:02;97887.06;;;25.03;51.52
40117;BME280;25829;50.228;18.936;2023-07-29T13:07:06;97889.13;;;25.06;51.18
40117;BME280;25829;50.228;18.936;2023-07-29T13:10:08;97886.44;;;25.06;51.38
40117;BME280;25829;50.228;18.936;2023-07-29T13:13:12;97889.78;;;25.12;51.62
40117;BME280;25829;50.228;18.936;2023-07-29T13:16:13;97880.72;;;25.16;51.21
40117;BME280;25829;50.228;18.936;2023-07-29T13:19:13;97890.91;;;25.19;50.92
40117;BME280;25829;50.228;18.936;2023-07-29T13:22:14;97888.53;;;25.27;50.71
40117;BME280;25829;50.228;18.936;2023-07-29T13:25:15;97883.31;;;25.30;50.55
40117;BME280;25829;50.228;18.936;2023-07-29T13:28:16;97879.81;;;25.30;50.39
40117;BME280;25829;50.228;18.936;2023-07-29T13:31:17;97876.16;;;25.26;50.33
40117;BME280;25829;50.228;18.936;2023-07-29T13:34:18;97873.56;;;25.20;49.99
40117;BME280;25829;50.228;18.936;2023-07-29T13:37:18;97867.72;;;25.18;50.50
40117;BME280;25829;50.228;18.936;2023-07-29T13:40:19;97873.56;;;25.20;50.67
40117;BME280;25829;50.228;18.936;2023-07-29T13:43:24;97866.16;;;25.26;50.54
40117;BME280;25829;50.228;18.936;2023-07-29T13:46:24;97862.97;;;25.33;50.65
40117;BME280;25829;50.228;18.936;2023-07-29T13:49:27;97867.09;;;25.39;50.15
40117;BME280;25829;50.228;18.936;2023-07-29T13:52:31;97865.19;;;25.39;49.69
40117;BME280;25829;50.228;18.936;2023-07-29T13:55:32;97860.09;;;25.38;49.42
40117;BME280;25829;50.228;18.936;2023-07-29T13:58:35;97849.16;;;25.34;48.61
40117;BME280;25829;50.228;18.936;2023-07-29T14:01:36;97851.69;;;25.31;48.32
40117;BME280;25829;50.228;18.936;2023-07-29T14:04:37;97854.72;;;25.29;48.47
40117;BME280;25829;50.228;18.936;2023-07-29T14:07:38;97845.50;;;25.30;48.74
40117;BME280;25829;50.228;18.936;2023-07-29T14:10:39;97842.34;;;25.28;48.67
40117;BME280;25829;50.228;18.936;2023-07-29T14:13:39;97837.06;;;25.23;48.37
40117;BME280;25829;50.228;18.936;2023-07-29T14:16:40;97840.09;;;25.21;48.43
40117;BME280;25829;50.228;18.936;2023-07-29T14:19:41;97830.72;;;25.19;48.06
40117;BME280;25829;50.228;18.936;2023-07-29T14:22:42;97843.28;;;25.15;48.69
40117;BME280;25829;50.228;18.936;2023-07-29T14:25:43;97832.16;;;25.08;48.72
40117;BME280;25829;50.228;18.936;2023-07-29T14:28:47;97830.56;;;25.07;48.93
40117;BME280;25829;50.228;18.936;2023-07-29T14:31:48;97821.81;;;25.10;48.65
40117;BME280;25829;50.228;18.936;2023-07-29T14:34:48;97822.31;;;25.12;48.79
40117;BME280;25829;50.228;18.936;2023-07-29T14:37:49;97819.63;;;25.12;48.69
40117;BME280;25829;50.228;18.936;2023-07-29T14:40:50;97807.88;;;25.08;48.95
40117;BME280;25829;50.228;18.936;2023-07-29T14:43:52;97808.34;;;25.01;49.04
40117;BME280;25829;50.228;18.936;2023-07-29T14:46:52;97815.16;;;24.98;49.14
40117;BME280;25829;50.228;18.936;2023-07-29T14:49:55;97813.25;;;24.99;49.84
40117;BME280;25829;50.228;18.936;2023-07-29T14:52:56;97814.53;;;25.02;49.96
40117;BME280;25829;50.228;18.936;2023-07-29T14:55:57;97810.09;;;25.06;49.94
40117;BME280;25829;50.228;18.936;2023-07-29T14:58:58;97822.31;;;25.12;49.95
40117;BME280;25829;50.228;18.936;2023-07-29T15:01:58;97821.38;;;25.08;48.80
40117;BME280;25829;50.228;18.936;2023-07-29T15:04:59;97822.31;;;25.03;48.83
40117;BME280;25829;50.228;18.936;2023-07-29T15:08:00;97821.84;;;25.01;48.97
40117;BME280;25829;50.228;18.936;2023-07-29T15:11:01;97831.84;;;25.00;48.86
40117;BME280;25829;50.228;18.936;2023-07-29T15:14:03;97829.78;;;24.97;48.92
40117;BME280;25829;50.228;18.936;2023-07-29T15:17:13;97822.16;;;24.99;49.03
40117;BME280;25829;50.228;18.936;2023-07-29T15:20:14;97834.84;;;24.99;49.02
40117;BME280;25829;50.228;18.936;2023-07-29T15:23:14;97837.25;;;25.00;49.29
40117;BME280;25829;50.228;18.936;2023-07-29T15:26:15;97844.06;;;25.07;49.86
40117;BME280;25829;50.228;18.936;2023-07-29T15:29:16;97842.31;;;25.11;49.84
40117;BME280;25829;50.228;18.936;2023-07-29T15:32:17;97838.97;;;25.14;49.92
40117;BME280;25829;50.228;18.936;2023-07-29T15:35:18;97841.66;;;25.14;50.08
40117;BME280;25829;50.228;18.936;2023-07-29T15:38:25;97849.47;;;25.15;50.27
40117;BME280;25829;50.228;18.936;2023-07-29T15:41:26;97847.72;;;25.11;50.47
40117;BME280;25829;50.228;18.936;2023-07-29T15:44:32;97852.78;;;25.04;50.52
40117;BME280;25829;50.228;18.936;2023-07-29T15:47:33;97843.91;;;24.94;50.94
40117;BME280;25829;50.228;18.936;2023-07-29T15:50:34;97858.34;;;24.81;50.72
40117;BME280;25829;50.228;18.936;2023-07-29T15:53:35;97854.81;;;24.63;50.62
40117;BME280;25829;50.228;18.936;2023-07-29T15:56:38;97855.09;;;24.53;50.89
40117;BME280;25829;50.228;18.936;2023-07-29T15:59:40;97837.63;;;24.42;50.85
40117;BME280;25829;50.228;18.936;2023-07-29T16:02:41;97832.69;;;24.35;50.70
40117;BME280;25829;50.228;18.936;2023-07-29T16:05:42;97831.22;;;24.29;50.61
40117;BME280;25829;50.228;18.936;2023-07-29T16:08:43;97818.22;;;24.22;51.08
40117;BME280;25829;50.228;18.936;2023-07-29T16:11:50;97820.41;;;24.20;51.09
40117;BME280;25829;50.228;18.936;2023-07-29T16:14:50;97816.28;;;24.14;51.58